Terminal Aerodrome Forecast
Issued by NWS

Home | Current Version | Previous Version | Graphics & Text | Print | Product List | Glossary On
Versions: 1 2 3 4 5 6 7 8 9 10 11 12 13
286
FTUS43 KOAX 221732
TAFCDR
TAF
KCDR 221732Z 2218/2318 21016G30KT P6SM BKN150
     FM230300 20012KT P6SM SCT150=

USA.gov is the U.S. government's official web portal to all federal, state and local government web resources and services.